createdAt,value
2022-11-01T00:02:01.944Z,13.68
2022-11-01T00:04:29.784Z,13.88
2022-11-01T00:06:57.575Z,14.07
2022-11-01T00:09:25.378Z,13.78
2022-11-01T00:11:53.061Z,14.33
2022-11-01T00:14:22.412Z,14.60
2022-11-01T00:16:50.690Z,14.76
2022-11-01T00:19:18.597Z,14.85
2022-11-01T00:21:46.420Z,14.59
2022-11-01T00:24:14.458Z,14.77
2022-11-01T00:26:42.260Z,14.63
2022-11-01T00:29:10.161Z,14.68
2022-11-01T00:31:39.329Z,14.54
2022-11-01T00:34:07.098Z,14.79
2022-11-01T00:36:35.057Z,14.24
2022-11-01T00:39:03.182Z,14.10
2022-11-01T00:41:30.866Z,13.92
2022-11-01T00:43:58.584Z,14.00
2022-11-01T00:46:26.512Z,13.91
2022-11-01T00:48:55.597Z,13.99
2022-11-01T00:51:23.595Z,13.91
2022-11-01T00:53:51.465Z,13.90
2022-11-01T00:56:19.404Z,13.84
2022-11-01T00:58:49.552Z,13.85
2022-11-01T01:01:17.409Z,14.08
2022-11-01T01:03:45.251Z,14.30
2022-11-01T01:06:14.371Z,14.29
2022-11-01T01:08:42.118Z,14.61
2022-11-01T01:11:09.864Z,14.70
2022-11-01T01:13:37.579Z,14.55
2022-11-01T01:16:09.229Z,14.60
2022-11-01T01:18:37.035Z,14.68
2022-11-01T01:21:06.364Z,14.69
2022-11-01T01:23:35.617Z,14.81
2022-11-01T01:26:07.035Z,15.01
2022-11-01T01:28:36.695Z,14.76
2022-11-01T01:31:08.814Z,14.83
2022-11-01T01:33:36.942Z,14.90
2022-11-01T01:36:06.391Z,14.92
2022-11-01T01:38:35.530Z,14.85
2022-11-01T01:41:17.301Z,14.99
2022-11-01T01:43:45.641Z,14.92
2022-11-01T01:46:13.888Z,15.10
2022-11-01T01:48:43.629Z,15.13
2022-11-01T01:51:14.607Z,15.00
2022-11-01T01:53:46.297Z,14.64
2022-11-01T01:56:17.346Z,14.80
2022-11-01T01:58:49.376Z,15.06
2022-11-01T02:01:17.492Z,14.80
2022-11-01T02:03:45.843Z,15.01
2022-11-01T02:06:16.686Z,15.05
2022-11-01T02:08:48.658Z,15.15
2022-11-01T02:11:17.787Z,15.39
2022-11-01T02:13:45.782Z,15.35
2022-11-01T02:16:39.437Z,15.50
2022-11-01T02:19:25.789Z,15.59
2022-11-01T02:22:04.277Z,15.62
2022-11-01T02:25:10.912Z,15.50
2022-11-01T02:28:02.004Z,15.04
2022-11-01T02:30:40.162Z,14.56
2022-11-01T02:33:21.747Z,14.55
2022-11-01T02:35:59.133Z,15.14
2022-11-01T02:38:30.777Z,15.43
2022-11-01T02:41:06.638Z,15.53
2022-11-01T02:43:45.223Z,14.70
2022-11-01T02:46:30.916Z,14.44
2022-11-01T02:49:00.358Z,15.18
2022-11-01T02:51:30.997Z,15.49
2022-11-01T02:54:02.428Z,15.50
2022-11-01T02:56:31.247Z,15.45
2022-11-01T02:58:59.168Z,15.21
2022-11-01T03:01:30.805Z,15.12
2022-11-01T03:04:04.683Z,15.20
2022-11-01T03:06:37.701Z,15.18
2022-11-01T03:09:08.176Z,15.46
2022-11-01T03:11:45.146Z,15.59
2022-11-01T03:14:24.495Z,15.66
2022-11-01T03:16:59.599Z,15.80
2022-11-01T03:19:36.660Z,15.62
2022-11-01T03:22:12.072Z,15.53
2022-11-01T03:24:48.610Z,15.48
2022-11-01T03:27:20.612Z,15.26
2022-11-01T03:29:56.771Z,15.20
2022-11-01T03:32:31.298Z,15.47
2022-11-01T03:35:04.389Z,15.63
2022-11-01T03:37:34.527Z,15.63
2022-11-01T03:40:05.614Z,15.75
2022-11-01T03:42:34.401Z,15.91
2022-11-01T03:45:08.107Z,15.87
2022-11-01T03:47:36.512Z,15.71
2022-11-01T03:50:20.378Z,15.53
2022-11-01T03:52:48.711Z,15.76
2022-11-01T03:55:21.343Z,15.81
2022-11-01T03:57:49.802Z,15.83
2022-11-01T04:00:20.994Z,15.97
2022-11-01T04:02:49.101Z,15.68
2022-11-01T04:05:18.821Z,15.38
2022-11-01T04:07:46.851Z,15.72
2022-11-01T04:10:15.272Z,15.77
2022-11-01T04:12:45.936Z,15.86
2022-11-01T04:15:31.719Z,15.91
2022-11-01T04:18:25.264Z,15.94
2022-11-01T04:20:54.933Z,15.82
2022-11-01T04:23:22.673Z,15.65
2022-11-01T04:25:50.474Z,15.80
2022-11-01T04:28:18.417Z,16.02
2022-11-01T04:30:46.136Z,16.13
2022-11-01T04:33:13.805Z,16.00
2022-11-01T04:35:41.599Z,15.71
2022-11-01T04:38:12.009Z,15.88
2022-11-01T04:40:40.097Z,15.87
2022-11-01T04:43:07.973Z,15.89
2022-11-01T04:45:35.701Z,15.69
2022-11-01T04:48:04.982Z,15.03
2022-11-01T04:50:33.000Z,15.46
2022-11-01T04:53:02.487Z,15.68
2022-11-01T04:55:32.142Z,15.21
2022-11-01T04:57:59.868Z,15.31
2022-11-01T05:00:28.142Z,15.08
2022-11-01T05:03:02.569Z,15.07
2022-11-01T05:05:30.724Z,14.65
2022-11-01T05:10:38.691Z,14.86
2022-11-01T05:13:06.786Z,15.39
2022-11-01T05:15:39.900Z,15.81
2022-11-01T05:18:15.734Z,15.94
2022-11-01T05:20:43.529Z,16.12
2022-11-01T05:23:11.350Z,16.06
2022-11-01T05:25:40.427Z,16.15
2022-11-01T05:28:10.080Z,16.26
2022-11-01T05:30:39.013Z,16.39
2022-11-01T05:33:07.870Z,16.36
2022-11-01T05:35:36.816Z,16.39
2022-11-01T05:38:06.125Z,16.42
2022-11-01T05:40:34.400Z,16.33
2022-11-01T05:43:03.960Z,16.28
2022-11-01T05:45:31.996Z,16.15
2022-11-01T05:48:03.641Z,16.52
2022-11-01T05:50:33.929Z,16.63
2022-11-01T05:53:08.893Z,16.51
2022-11-01T05:55:37.419Z,16.27
2022-11-01T05:58:07.202Z,16.43
2022-11-01T06:00:35.724Z,16.62
2022-11-01T06:03:04.282Z,16.80
2022-11-01T06:05:35.196Z,16.41
2022-11-01T06:08:04.049Z,16.75
2022-11-01T06:10:32.504Z,16.48
2022-11-01T06:13:00.857Z,16.65
2022-11-01T06:15:33.089Z,16.57
2022-11-01T06:18:04.312Z,16.81
2022-11-01T06:20:33.635Z,16.80
2022-11-01T06:23:01.425Z,16.36
2022-11-01T06:25:29.457Z,16.39
2022-11-01T06:27:57.249Z,16.41
2022-11-01T06:30:24.989Z,16.28
2022-11-01T06:32:54.035Z,16.34
2022-11-01T06:35:21.738Z,16.45
2022-11-01T06:37:49.568Z,16.03
2022-11-01T06:40:17.422Z,16.07
2022-11-01T06:42:46.323Z,16.08
2022-11-01T06:45:15.558Z,16.64
2022-11-01T06:47:47.489Z,16.77
2022-11-01T06:50:16.974Z,16.53
2022-11-01T06:52:44.710Z,16.59
2022-11-01T06:55:12.604Z,16.46
2022-11-01T06:57:43.405Z,16.10
2022-11-01T07:00:12.247Z,16.04
2022-11-01T07:02:40.139Z,16.14
2022-11-01T07:05:08.771Z,16.52
2022-11-01T07:07:37.915Z,16.65
2022-11-01T07:10:08.814Z,16.68
2022-11-01T07:12:36.550Z,16.64
2022-11-01T07:15:04.618Z,16.82
2022-11-01T07:17:32.417Z,17.07
2022-11-01T07:20:00.181Z,16.91
2022-11-01T07:22:29.984Z,17.22
2022-11-01T07:24:59.906Z,16.76
2022-11-01T07:27:27.633Z,16.84
2022-11-01T07:29:55.405Z,16.24
2022-11-01T07:32:23.239Z,16.39
2022-11-01T07:34:50.981Z,16.53
2022-11-01T07:37:18.867Z,16.90
2022-11-01T07:39:47.163Z,16.70
2022-11-01T07:42:16.314Z,17.08
2022-11-01T07:44:45.709Z,17.40
2022-11-01T07:47:13.437Z,17.61
2022-11-01T07:49:41.156Z,17.56
2022-11-01T07:52:08.952Z,17.30
2022-11-01T07:54:36.689Z,17.70
2022-11-01T07:57:04.465Z,17.49
2022-11-01T07:59:33.523Z,17.71
2022-11-01T08:02:05.290Z,17.66
2022-11-01T08:04:35.813Z,17.72
2022-11-01T08:07:03.556Z,17.81
2022-11-01T08:09:31.343Z,17.67
2022-11-01T08:11:59.397Z,17.73
2022-11-01T08:14:29.526Z,17.84
2022-11-01T08:17:01.532Z,17.73
2022-11-01T08:19:29.249Z,17.89
2022-11-01T08:21:58.574Z,18.15
2022-11-01T08:24:26.327Z,18.29
2022-11-01T08:26:54.220Z,18.39
2022-11-01T08:29:22.320Z,18.62
2022-11-01T08:31:52.117Z,18.69
2022-11-01T08:34:21.440Z,18.78
2022-11-01T08:36:49.247Z,18.95
2022-11-01T08:39:17.214Z,18.96
2022-11-01T08:41:49.255Z,18.93
2022-11-01T08:44:17.702Z,18.79
2022-11-01T08:46:45.821Z,18.90
2022-11-01T08:49:14.639Z,19.00
2022-11-01T08:51:43.695Z,18.99
2022-11-01T08:54:13.528Z,19.10
2022-11-01T08:56:41.221Z,19.21
2022-11-01T08:59:09.396Z,18.91
2022-11-01T09:01:38.460Z,19.13
2022-11-01T09:04:07.470Z,19.11
2022-11-01T09:06:36.541Z,19.07
2022-11-01T09:09:06.205Z,18.97
2022-11-01T09:11:33.933Z,19.02
2022-11-01T09:14:01.662Z,19.06
2022-11-01T09:16:29.674Z,19.36
2022-11-01T09:19:01.450Z,19.49
2022-11-01T09:21:31.817Z,19.59
2022-11-01T09:24:02.404Z,19.44
2022-11-01T09:26:31.574Z,19.44
2022-11-01T09:28:59.980Z,19.75
2022-11-01T09:31:28.491Z,19.54
2022-11-01T09:33:57.231Z,19.88
2022-11-01T09:36:25.953Z,19.91
2022-11-01T09:38:53.651Z,20.21
2022-11-01T09:41:32.625Z,20.52
2022-11-01T09:44:05.687Z,20.44
2022-11-01T09:46:43.485Z,20.62
2022-11-01T09:49:20.375Z,20.46
2022-11-01T09:51:48.186Z,20.60
2022-11-01T09:54:24.197Z,20.76
2022-11-01T09:57:01.775Z,20.64
2022-11-01T09:59:36.704Z,21.20
2022-11-01T10:02:25.704Z,21.47
2022-11-01T10:05:07.950Z,20.84
2022-11-01T10:07:44.205Z,20.63
2022-11-01T10:10:25.736Z,20.81
2022-11-01T10:13:06.561Z,20.59
2022-11-01T10:15:51.266Z,20.31
2022-11-01T10:18:28.637Z,20.63
2022-11-01T10:21:02.873Z,20.50
2022-11-01T10:23:41.527Z,20.38
2022-11-01T10:26:14.049Z,20.64
2022-11-01T10:28:50.351Z,20.89
2022-11-01T10:31:23.809Z,20.87
2022-11-01T10:33:58.162Z,20.87
2022-11-01T10:36:31.355Z,20.57
2022-11-01T10:39:48.652Z,20.69
2022-11-01T10:41:57.391Z,21.19
2022-11-01T10:44:29.778Z,21.24
2022-11-01T10:47:01.229Z,20.98
2022-11-01T10:49:52.904Z,21.07
2022-11-01T10:52:28.142Z,20.87
2022-11-01T10:54:57.808Z,21.38
2022-11-01T10:57:37.991Z,21.12
2022-11-01T11:00:11.745Z,20.77
2022-11-01T11:02:45.731Z,21.11
2022-11-01T11:05:14.493Z,21.30
2022-11-01T11:07:43.038Z,21.41
2022-11-01T11:10:22.844Z,21.08
2022-11-01T11:12:57.411Z,21.53
2022-11-01T11:15:36.313Z,21.81
2022-11-01T11:18:15.689Z,21.50
2022-11-01T11:20:44.638Z,21.07
2022-11-01T11:23:13.752Z,21.56
2022-11-01T11:25:42.982Z,21.77
2022-11-01T11:28:25.502Z,21.30
2022-11-01T11:30:53.900Z,21.73
2022-11-01T11:33:23.777Z,21.14
2022-11-01T11:35:57.463Z,21.25
2022-11-01T11:38:43.554Z,21.17
2022-11-01T11:41:27.980Z,21.65
2022-11-01T11:43:55.967Z,21.99
2022-11-01T11:46:24.967Z,21.63
2022-11-01T11:48:57.012Z,21.02
2022-11-01T11:51:27.287Z,21.02
2022-11-01T11:54:13.059Z,20.87
2022-11-01T11:56:40.883Z,20.63
2022-11-01T11:59:18.286Z,20.34
2022-11-01T12:01:47.755Z,18.90
2022-11-01T12:04:21.194Z,18.36
2022-11-01T12:06:49.120Z,18.64
2022-11-01T12:09:42.610Z,18.70
2022-11-01T12:12:18.021Z,18.48
2022-11-01T12:14:45.785Z,18.67
2022-11-01T12:17:27.923Z,18.36
2022-11-01T12:20:10.573Z,18.79
2022-11-01T12:22:41.404Z,18.56
2022-11-01T12:25:15.061Z,18.81
2022-11-01T12:27:50.080Z,18.63
2022-11-01T12:30:21.312Z,18.27
2022-11-01T12:32:52.229Z,18.62
2022-11-01T12:35:28.552Z,18.73
2022-11-01T12:38:39.424Z,18.71
2022-11-01T12:41:19.907Z,17.73
2022-11-01T12:43:58.202Z,18.15
2022-11-01T12:46:32.256Z,18.10
2022-11-01T12:49:06.398Z,17.76
2022-11-01T12:51:41.497Z,18.09
2022-11-01T12:54:15.939Z,18.42
2022-11-01T12:56:43.783Z,18.36
2022-11-01T12:59:14.773Z,18.18
2022-11-01T13:01:52.796Z,18.36
2022-11-01T13:04:31.527Z,18.49
2022-11-01T13:07:23.351Z,18.29
2022-11-01T13:10:02.896Z,17.57
2022-11-01T13:12:40.513Z,18.26
2022-11-01T13:15:14.910Z,18.28
2022-11-01T13:17:51.953Z,18.41
2022-11-01T13:20:30.100Z,18.07
2022-11-01T13:23:09.114Z,18.28
2022-11-01T13:25:43.534Z,18.64
2022-11-01T13:28:25.938Z,18.58
2022-11-01T13:31:01.107Z,18.17
2022-11-01T13:33:37.030Z,17.88
2022-11-01T13:36:11.234Z,17.75
2022-11-01T13:38:49.612Z,18.04
2022-11-01T13:41:27.275Z,18.20
2022-11-01T13:43:59.844Z,17.89
2022-11-01T13:46:49.862Z,18.00
2022-11-01T13:49:39.593Z,18.43
2022-11-01T13:52:13.907Z,18.07
2022-11-01T13:54:48.897Z,17.83
2022-11-01T13:57:18.407Z,17.77
2022-11-01T13:59:55.480Z,17.85
2022-11-01T14:02:57.824Z,17.90
2022-11-01T14:05:39.974Z,18.43
2022-11-01T14:08:14.788Z,18.26
2022-11-01T14:10:51.238Z,17.79
2022-11-01T14:13:31.484Z,18.04
2022-11-01T14:16:20.997Z,18.03
2022-11-01T14:19:20.274Z,17.81
2022-11-01T14:21:52.933Z,17.37
2022-11-01T14:24:24.299Z,17.19
2022-11-01T14:27:07.802Z,17.34
2022-11-01T14:29:37.090Z,17.39
2022-11-01T14:32:05.379Z,17.46
2022-11-01T14:34:36.961Z,17.24
2022-11-01T14:37:20.145Z,17.54
2022-11-01T14:40:29.011Z,17.43
2022-11-01T14:43:04.612Z,17.77
2022-11-01T14:45:35.268Z,17.67
2022-11-01T14:48:12.602Z,17.80
2022-11-01T14:50:47.621Z,17.42
2022-11-01T14:53:23.641Z,17.65
2022-11-01T14:55:51.628Z,17.46
2022-11-01T14:58:23.160Z,17.48
2022-11-01T15:00:52.917Z,17.57
2022-11-01T15:03:20.910Z,17.05
2022-11-01T15:05:51.128Z,16.97
2022-11-01T15:08:30.110Z,17.02
2022-11-01T15:11:02.336Z,16.74
2022-11-01T15:13:34.122Z,16.92
2022-11-01T15:16:15.580Z,16.51
2022-11-01T15:18:47.904Z,16.53
2022-11-01T15:23:53.334Z,16.96
2022-11-01T15:26:24.783Z,17.02
2022-11-01T15:28:56.325Z,16.94
2022-11-01T15:31:24.293Z,16.79
2022-11-01T15:33:57.410Z,16.93
2022-11-01T15:36:31.484Z,17.02
2022-11-01T15:39:02.486Z,17.01
2022-11-01T15:41:32.525Z,16.83
2022-11-01T15:44:03.695Z,16.70
2022-11-01T15:46:34.144Z,16.66
2022-11-01T15:49:07.625Z,16.70
2022-11-01T15:51:40.567Z,16.59
2022-11-01T15:54:19.128Z,16.55
2022-11-01T15:56:53.998Z,16.48
2022-11-01T15:59:27.741Z,16.66
2022-11-01T16:01:59.758Z,16.57
2022-11-01T16:04:31.421Z,16.59
2022-11-01T16:07:06.111Z,16.51
2022-11-01T16:09:39.500Z,16.43
2022-11-01T16:12:17.666Z,16.32
2022-11-01T16:14:55.694Z,16.39
2022-11-01T16:17:26.848Z,16.27
2022-11-01T16:19:55.141Z,16.39
2022-11-01T16:22:29.157Z,16.35
2022-11-01T16:25:17.363Z,16.29
2022-11-01T16:28:03.791Z,16.22
2022-11-01T16:30:46.225Z,15.97
2022-11-01T16:33:22.000Z,15.46
2022-11-01T16:35:52.013Z,15.68
2022-11-01T16:38:38.617Z,15.59
2022-11-01T16:41:17.955Z,15.54
2022-11-01T16:43:46.014Z,15.69
2022-11-01T16:46:15.580Z,15.73
2022-11-01T16:48:52.932Z,15.26
2022-11-01T16:51:21.339Z,16.11
2022-11-01T16:53:50.583Z,16.40
2022-11-01T16:56:36.202Z,16.22
2022-11-01T16:59:07.856Z,16.33
2022-11-01T17:01:37.122Z,16.61
2022-11-01T17:04:05.432Z,16.29
2022-11-01T17:06:37.730Z,15.74
2022-11-01T17:09:11.571Z,16.16
2022-11-01T17:11:39.430Z,16.24
2022-11-01T17:14:07.142Z,15.13
2022-11-01T17:16:39.454Z,15.50
2022-11-01T17:19:07.854Z,15.98
2022-11-01T17:21:39.504Z,16.10
2022-11-01T17:24:07.813Z,16.27
2022-11-01T17:26:35.768Z,14.70
2022-11-01T17:29:03.963Z,15.45
2022-11-01T17:31:31.705Z,14.61
2022-11-01T17:34:00.794Z,14.59
2022-11-01T17:36:28.751Z,15.59
2022-11-01T17:38:56.492Z,15.65
2022-11-01T17:41:24.337Z,14.97
2022-11-01T17:43:52.743Z,15.64
2022-11-01T17:46:25.194Z,15.00
2022-11-01T17:48:52.924Z,14.71
2022-11-01T17:51:23.042Z,14.72
2022-11-01T17:53:54.695Z,15.26
2022-11-01T17:56:22.542Z,15.74
2022-11-01T17:58:52.210Z,15.92
2022-11-01T18:01:20.709Z,15.89
2022-11-01T18:03:49.192Z,14.35
2022-11-01T18:06:17.667Z,15.34
2022-11-01T18:08:49.755Z,15.81
2022-11-01T18:11:34.970Z,15.89
2022-11-01T18:14:11.166Z,15.04
2022-11-01T18:16:46.982Z,15.09
2022-11-01T18:19:49.162Z,15.72
2022-11-01T18:22:31.551Z,15.61
2022-11-01T18:25:06.180Z,15.75
2022-11-01T18:27:35.775Z,15.01
2022-11-01T18:30:13.865Z,15.03
2022-11-01T18:32:48.662Z,15.51
2022-11-01T18:35:27.506Z,15.70
2022-11-01T18:38:13.362Z,14.58
2022-11-01T18:40:51.532Z,14.39
2022-11-01T18:43:21.040Z,15.25
2022-11-01T18:46:11.551Z,15.52
2022-11-01T18:48:37.664Z,15.29
2022-11-01T18:51:14.125Z,15.41
2022-11-01T18:53:41.897Z,14.95
2022-11-01T18:56:21.236Z,14.92
2022-11-01T18:58:50.186Z,14.84
2022-11-01T19:01:20.041Z,14.97
2022-11-01T19:03:56.013Z,15.20
2022-11-01T19:06:27.073Z,14.76
2022-11-01T19:08:57.200Z,14.17
2022-11-01T19:11:29.742Z,14.01
2022-11-01T19:13:59.465Z,13.63
2022-11-01T19:16:29.585Z,13.85
2022-11-01T19:18:57.784Z,14.09
2022-11-01T19:21:26.024Z,14.43
2022-11-01T19:23:55.201Z,14.36
2022-11-01T19:26:26.686Z,14.54
2022-11-01T19:28:55.842Z,14.83
2022-11-01T19:31:27.261Z,14.61
2022-11-01T19:33:58.130Z,14.49
2022-11-01T19:39:22.904Z,13.92
2022-11-01T19:41:51.493Z,14.13
2022-11-01T19:44:22.561Z,13.59
2022-11-01T19:46:52.285Z,13.39
2022-11-01T19:49:24.720Z,13.90
2022-11-01T19:52:02.635Z,14.10
2022-11-01T19:54:35.731Z,14.35
2022-11-01T19:57:15.915Z,14.34
2022-11-01T19:59:45.201Z,14.47
2022-11-01T20:02:17.093Z,14.54
2022-11-01T20:04:45.295Z,14.38
2022-11-01T20:07:16.797Z,14.22
2022-11-01T20:09:44.942Z,14.08
2022-11-01T20:12:12.712Z,14.24
2022-11-01T20:14:40.809Z,14.09
2022-11-01T20:17:09.992Z,13.87
2022-11-01T20:19:37.942Z,13.74
2022-11-01T20:22:05.949Z,14.06
2022-11-01T20:24:36.815Z,14.23
2022-11-01T20:27:04.792Z,14.29
2022-11-01T20:29:32.583Z,14.31
2022-11-01T20:32:00.332Z,14.22
2022-11-01T20:34:29.507Z,13.17
2022-11-01T20:37:22.642Z,13.36
2022-11-01T20:39:44.917Z,13.65
2022-11-01T20:42:12.684Z,13.48
2022-11-01T20:44:40.492Z,13.52
2022-11-01T20:47:08.190Z,13.26
2022-11-01T20:49:37.345Z,12.89
2022-11-01T20:52:33.694Z,12.74
2022-11-01T20:54:53.657Z,12.96
2022-11-01T20:57:27.885Z,12.79
2022-11-01T20:59:56.235Z,13.06
2022-11-01T21:02:24.262Z,13.45
2022-11-01T21:05:00.314Z,13.61
2022-11-01T21:07:30.125Z,13.46
2022-11-01T21:09:58.189Z,13.51
2022-11-01T21:12:43.327Z,13.09
2022-11-01T21:15:33.394Z,12.96
2022-11-01T21:18:26.233Z,12.65
2022-11-01T21:20:56.501Z,13.14
2022-11-01T21:23:28.278Z,12.59
2022-11-01T21:25:59.045Z,13.02
2022-11-01T21:28:30.693Z,13.12
2022-11-01T21:31:04.154Z,12.32
2022-11-01T21:33:36.551Z,12.34
2022-11-01T21:36:17.527Z,12.61
2022-11-01T21:38:47.928Z,12.75
2022-11-01T21:41:31.452Z,12.96
2022-11-01T21:44:12.908Z,12.90
2022-11-01T21:46:40.955Z,12.56
2022-11-01T21:49:24.612Z,12.52
2022-11-01T21:51:54.183Z,12.52
2022-11-01T21:54:22.475Z,12.21
2022-11-01T21:56:50.403Z,12.72
2022-11-01T21:59:18.333Z,12.91
2022-11-01T22:01:49.140Z,12.95
2022-11-01T22:04:18.208Z,13.05
2022-11-01T22:06:47.833Z,12.97
2022-11-01T22:09:18.136Z,13.13
2022-11-01T22:11:46.064Z,12.75
2022-11-01T22:14:14.041Z,12.85
2022-11-01T22:16:41.967Z,13.15
2022-11-01T22:19:09.659Z,13.24
2022-11-01T22:21:37.497Z,13.22
2022-11-01T22:24:06.608Z,13.16
2022-11-01T22:26:35.780Z,13.07
2022-11-01T22:29:03.523Z,13.00
2022-11-01T22:31:31.465Z,12.95
2022-11-01T22:33:59.241Z,13.17
2022-11-01T22:36:29.085Z,13.24
2022-11-01T22:38:58.575Z,12.76
2022-11-01T22:41:31.887Z,12.97
2022-11-01T22:44:05.349Z,13.14
2022-11-01T22:46:43.850Z,13.17
2022-11-01T22:49:16.322Z,13.35
2022-11-01T22:51:46.783Z,13.26
2022-11-01T22:54:40.038Z,13.08
2022-11-01T22:57:15.456Z,12.88
2022-11-01T22:59:47.438Z,12.91
2022-11-01T23:02:27.590Z,12.70
2022-11-01T23:05:02.400Z,12.59
2022-11-01T23:07:35.163Z,12.95
2022-11-01T23:10:06.208Z,13.09
2022-11-01T23:12:54.694Z,13.15
2022-11-01T23:15:30.176Z,13.07
2022-11-01T23:18:03.499Z,13.10
2022-11-01T23:20:31.310Z,13.10
2022-11-01T23:23:00.612Z,13.12
2022-11-01T23:25:30.155Z,13.10
2022-11-01T23:27:57.880Z,13.09
2022-11-01T23:30:27.057Z,13.04
2022-11-01T23:32:54.929Z,13.03
2022-11-01T23:35:23.112Z,12.88
2022-11-01T23:37:52.678Z,12.96
2022-11-01T23:40:22.253Z,12.92
2022-11-01T23:42:50.156Z,12.36
2022-11-01T23:45:25.785Z,12.16
2022-11-01T23:47:54.914Z,11.87
2022-11-01T23:50:28.458Z,12.21
2022-11-01T23:52:59.715Z,12.41
2022-11-01T23:55:29.512Z,12.43
2022-11-01T23:57:59.934Z,12.12
